Time;durP1;ratioP1;P1;durP2;ratioP2;P2;SDS_P1;SDS_P2;PMS_P1;PMS_P2;Temp;Humidity;BMP_temperature;BMP_pressure;BME280_temperature;BME280_humidity;BME280_pressure;Samples;Min_cycle;Max_cycle;Signal;HPM_P1;HPM_P2
2021/05/08 00:00:45;;;;;;;7.70;4.35;;;5.40;84.90;;;;;;5075802;28;20041;-53
2021/05/08 00:03:11;;;;;;;6.82;4.35;;;5.30;85.00;;;;;;5075208;28;20041;-53
2021/05/08 00:05:36;;;;;;;9.82;4.70;;;5.30;85.00;;;;;;5078141;28;20047;-51
2021/05/08 00:08:04;;;;;;;6.32;4.07;;;5.20;85.00;;;;;;5075923;28;20413;-53
2021/05/08 00:10:30;;;;;;;7.13;4.45;;;5.20;85.20;;;;;;5076945;28;20128;-51
2021/05/08 00:12:56;;;;;;;6.95;4.18;;;5.20;85.20;;;;;;5072617;28;20060;-51
2021/05/08 00:15:24;;;;;;;8.65;4.35;;;5.20;85.20;;;;;;5074370;28;20465;-52
2021/05/08 00:17:50;;;;;;;10.55;4.30;;;5.20;85.20;;;;;;5042584;28;20447;-52
2021/05/08 00:20:16;;;;;;;9.05;4.32;;;5.20;85.50;;;;;;5074404;28;20598;-51
2021/05/08 00:22:42;;;;;;;7.50;4.22;;;5.20;85.80;;;;;;5074708;28;20550;-52
2021/05/08 00:25:10;;;;;;;7.97;4.40;;;5.10;85.90;;;;;;5056939;28;20135;-53
2021/05/08 00:27:36;;;;;;;9.63;4.50;;;5.00;86.20;;;;;;5074628;28;20083;-53
2021/05/08 00:30:03;;;;;;;6.95;4.35;;;5.00;86.30;;;;;;5055992;28;20090;-54
2021/05/08 00:32:31;;;;;;;8.95;4.57;;;4.90;86.30;;;;;;5076111;28;20397;-55
2021/05/08 00:34:57;;;;;;;7.35;4.00;;;4.90;86.70;;;;;;5076222;28;20053;-55
2021/05/08 00:37:23;;;;;;;5.30;3.75;;;4.80;86.10;;;;;;5058050;28;20048;-52
2021/05/08 00:39:50;;;;;;;7.93;4.30;;;4.80;85.80;;;;;;5073340;28;20507;-53
2021/05/08 00:42:18;;;;;;;10.20;4.65;;;4.70;85.90;;;;;;5043000;28;20044;-55
2021/05/08 00:44:44;;;;;;;8.27;4.88;;;4.70;86.30;;;;;;5075561;28;20043;-54
2021/05/08 00:47:13;;;;;;;8.50;4.60;;;4.80;86.80;;;;;;5075036;28;20059;-55
2021/05/08 00:49:39;;;;;;;10.93;5.10;;;4.80;86.90;;;;;;5074368;28;20133;-52
2021/05/08 00:52:05;;;;;;;8.82;4.93;;;4.80;87.10;;;;;;5075665;28;20036;-54
2021/05/08 00:54:34;;;;;;;9.40;4.80;;;4.80;87.20;;;;;;5075227;28;20515;-53
2021/05/08 00:57:02;;;;;;;9.05;4.78;;;4.80;86.60;;;;;;5058293;28;20032;-55
2021/05/08 00:59:28;;;;;;;11.05;4.75;;;4.70;87.00;;;;;;5065509;28;20071;-52
2021/05/08 01:01:55;;;;;;;7.90;5.28;;;4.60;87.40;;;;;;5070089;28;20032;-53
2021/05/08 01:04:21;;;;;;;11.52;5.03;;;4.50;87.90;;;;;;5057462;28;20033;-54
2021/05/08 01:06:46;;;;;;;7.95;4.95;;;4.60;88.20;;;;;;5040513;28;20070;-51
2021/05/08 01:09:12;;;;;;;12.52;5.65;;;4.50;88.20;;;;;;5074280;28;20048;-52
2021/05/08 01:11:40;;;;;;;9.20;5.43;;;4.50;88.30;;;;;;5071918;28;20090;-52
2021/05/08 01:14:06;;;;;;;8.38;5.10;;;4.50;88.50;;;;;;5074676;28;20044;-53
2021/05/08 01:16:34;;;;;;;9.05;5.40;;;4.50;88.40;;;;;;5055785;28;20071;-50
2021/05/08 01:18:59;;;;;;;10.00;5.82;;;4.50;88.20;;;;;;5074222;28;20100;-53
2021/05/08 01:21:25;;;;;;;8.95;5.70;;;4.50;88.70;;;;;;5073552;28;20075;-51
2021/05/08 01:23:52;;;;;;;8.05;5.25;;;4.50;88.80;;;;;;5073948;28;20090;-50
2021/05/08 01:26:18;;;;;;;9.40;5.57;;;4.50;88.80;;;;;;5072821;28;20515;-52
2021/05/08 01:28:45;;;;;;;8.73;5.57;;;4.50;88.90;;;;;;5072333;28;20542;-52
2021/05/08 01:31:12;;;;;;;7.95;5.50;;;4.50;89.00;;;;;;5075533;28;20545;-53
2021/05/08 01:33:38;;;;;;;7.97;5.57;;;4.50;88.90;;;;;;5072723;28;20100;-49
2021/05/08 01:36:04;;;;;;;11.30;6.82;;;4.50;88.90;;;;;;5073178;28;20045;-50
2021/05/08 01:38:32;;;;;;;9.77;6.32;;;4.50;88.70;;;;;;5070619;28;20043;-50
2021/05/08 01:41:04;;;;;;;9.18;6.63;;;4.50;88.90;;;;;;5072724;28;20489;-48
2021/05/08 01:43:30;;;;;;;10.00;6.80;;;4.50;88.70;;;;;;5067720;28;20078;-51
2021/05/08 01:45:57;;;;;;;11.85;7.25;;;4.50;88.90;;;;;;5053320;28;20505;-52
2021/05/08 01:48:25;;;;;;;12.15;7.13;;;4.50;88.90;;;;;;5036056;28;20102;-50
2021/05/08 01:50:52;;;;;;;13.00;7.28;;;4.50;88.90;;;;;;5070190;28;20086;-50
2021/05/08 01:53:17;;;;;;;13.45;7.95;;;4.50;88.90;;;;;;5070491;28;20036;-48
2021/05/08 01:55:43;;;;;;;12.32;7.45;;;4.50;89.10;;;;;;5070993;28;20032;-50
2021/05/08 01:58:09;;;;;;;13.88;7.03;;;4.50;89.60;;;;;;5071453;28;20047;-51
2021/05/08 02:00:38;;;;;;;16.98;8.20;;;4.50;89.00;;;;;;5070343;28;20036;-52
2021/05/08 02:03:04;;;;;;;13.70;7.72;;;4.50;89.00;;;;;;5070786;28;20056;-49
2021/05/08 02:05:32;;;;;;;13.35;7.50;;;4.50;89.00;;;;;;5036284;28;20052;-49
2021/05/08 02:08:01;;;;;;;12.65;7.80;;;4.50;88.90;;;;;;5050456;28;20499;-54
2021/05/08 02:10:27;;;;;;;13.82;7.75;;;4.50;88.90;;;;;;5069816;28;20029;-51
2021/05/08 02:12:59;;;;;;;10.23;6.93;;;4.50;88.90;;;;;;5067245;28;20036;-51
2021/05/08 02:15:26;;;;;;;11.48;7.32;;;4.40;88.90;;;;;;5071205;28;20044;-49
2021/05/08 02:17:52;;;;;;;11.32;7.82;;;4.40;88.90;;;;;;5070953;28;20154;-49
2021/05/08 02:20:22;;;;;;;13.02;7.63;;;4.40;88.90;;;;;;5051504;28;20048;-49
2021/05/08 02:22:49;;;;;;;14.05;7.63;;;4.40;88.80;;;;;;5070740;28;20500;-49
2021/05/08 02:25:16;;;;;;;11.95;7.72;;;4.40;89.10;;;;;;5052205;28;20049;-50
2021/05/08 02:27:44;;;;;;;13.88;8.43;;;4.30;89.70;;;;;;5049488;28;20037;-49
2021/05/08 02:30:13;;;;;;;10.65;7.65;;;4.30;89.30;;;;;;5055721;28;20037;-51
2021/05/08 02:32:39;;;;;;;15.05;7.63;;;4.30;89.30;;;;;;5061305;28;20032;-49
2021/05/08 02:35:08;;;;;;;11.88;8.30;;;4.20;89.30;;;;;;5044751;28;20062;-49
2021/05/08 02:37:34;;;;;;;10.25;7.53;;;4.20;89.00;;;;;;5051691;28;20135;-53
2021/05/08 02:40:00;;;;;;;10.05;6.75;;;4.20;88.90;;;;;;5063942;28;20037;-52
2021/05/08 02:42:27;;;;;;;9.30;5.90;;;4.10;88.70;;;;;;5048713;28;20708;-53
2021/05/08 02:44:53;;;;;;;10.25;5.70;;;4.00;88.90;;;;;;5036651;28;20127;-49
2021/05/08 02:47:19;;;;;;;14.32;7.43;;;4.00;88.40;;;;;;5069970;28;20436;-54
2021/05/08 02:49:47;;;;;;;12.40;8.18;;;4.00;88.80;;;;;;5036072;28;20507;-50
2021/05/08 02:52:13;;;;;;;12.00;7.78;;;4.00;88.70;;;;;;5069519;28;20480;-50
2021/05/08 02:54:39;;;;;;;16.83;8.23;;;4.00;88.80;;;;;;5070485;28;20135;-50
2021/05/08 02:57:05;;;;;;;11.90;7.10;;;3.90;89.10;;;;;;5068376;28;20040;-51
2021/05/08 02:59:35;;;;;;;16.48;8.45;;;3.90;89.20;;;;;;5069850;28;20097;-51
2021/05/08 03:02:05;;;;;;;12.10;7.53;;;3.90;89.60;;;;;;5052138;28;20551;-50
2021/05/08 03:04:31;;;;;;;13.18;9.00;;;3.90;89.90;;;;;;5053287;28;20075;-51
2021/05/08 03:06:57;;;;;;;21.73;12.05;;;3.90;90.00;;;;;;5070483;28;20048;-54
2021/05/08 03:09:24;;;;;;;21.08;13.57;;;4.00;89.90;;;;;;5051718;28;20401;-54
2021/05/08 03:11:50;;;;;;;22.25;14.57;;;4.00;89.70;;;;;;5052368;28;20036;-53
2021/05/08 03:14:16;;;;;;;22.05;14.45;;;4.10;89.70;;;;;;5069438;28;20041;-54
2021/05/08 03:16:43;;;;;;;27.02;15.30;;;4.00;89.60;;;;;;5069399;28;20040;-51
2021/05/08 03:19:10;;;;;;;31.13;19.45;;;4.00;89.80;;;;;;5054822;28;20052;-53
2021/05/08 03:21:38;;;;;;;30.42;18.98;;;4.00;89.70;;;;;;5049150;28;20082;-54
2021/05/08 03:24:05;;;;;;;30.20;19.88;;;3.90;89.50;;;;;;5070077;28;20469;-52
2021/05/08 03:26:31;;;;;;;35.55;21.17;;;4.00;89.50;;;;;;5051921;28;20393;-51
2021/05/08 03:28:57;;;;;;;34.95;22.65;;;3.90;89.50;;;;;;5034909;28;20049;-54
2021/05/08 03:31:23;;;;;;;37.38;22.90;;;3.90;89.90;;;;;;5070695;28;20082;-50
2021/05/08 03:33:49;;;;;;;36.22;23.73;;;3.90;89.80;;;;;;5033578;28;20044;-51
2021/05/08 03:36:15;;;;;;;34.58;22.27;;;3.80;89.70;;;;;;5070735;28;20135;-51
2021/05/08 03:38:41;;;;;;;31.80;21.95;;;3.90;89.50;;;;;;5070232;28;20124;-53
2021/05/08 03:41:07;;;;;;;33.45;21.17;;;3.80;89.50;;;;;;5051967;28;20044;-53
2021/05/08 03:43:34;;;;;;;35.22;20.67;;;3.80;89.60;;;;;;5053395;28;20060;-54
2021/05/08 03:46:00;;;;;;;33.88;20.20;;;3.80;89.60;;;;;;5072034;28;20074;-52
2021/05/08 03:48:27;;;;;;;32.50;20.52;;;3.80;89.30;;;;;;5070312;28;20473;-53
2021/05/08 03:50:54;;;;;;;26.70;18.20;;;3.80;89.40;;;;;;5073263;28;20067;-53
2021/05/08 03:53:22;;;;;;;26.27;17.17;;;3.70;89.30;;;;;;5053794;28;20457;-50
2021/05/08 03:55:50;;;;;;;26.30;17.45;;;3.80;89.50;;;;;;5074833;28;20028;-53
2021/05/08 03:58:20;;;;;;;26.35;15.60;;;3.80;89.50;;;;;;5073737;28;20377;-54
2021/05/08 04:00:46;;;;;;;22.70;15.15;;;3.80;89.50;;;;;;5055728;28;20128;-54
2021/05/08 04:03:12;;;;;;;22.88;14.35;;;3.80;89.30;;;;;;5071591;28;20476;-54
2021/05/08 04:05:37;;;;;;;22.27;13.77;;;3.80;89.20;;;;;;5074613;28;20032;-51
2021/05/08 04:08:03;;;;;;;20.30;12.85;;;3.80;89.30;;;;;;5074271;28;20036;-53
2021/05/08 04:10:30;;;;;;;23.02;13.40;;;3.80;89.30;;;;;;5074430;28;20041;-51
2021/05/08 04:12:57;;;;;;;23.23;13.38;;;3.80;89.30;;;;;;5071949;28;20048;-50
2021/05/08 04:15:23;;;;;;;18.27;12.18;;;3.70;89.00;;;;;;5074888;28;20044;-48
2021/05/08 04:17:50;;;;;;;19.23;12.48;;;3.70;89.20;;;;;;5057173;28;20051;-50
2021/05/08 04:20:18;;;;;;;19.10;12.70;;;3.70;89.20;;;;;;5074610;28;20534;-50
2021/05/08 04:22:44;;;;;;;20.25;11.82;;;3.70;89.20;;;;;;5069206;28;20131;-50
2021/05/08 04:25:10;;;;;;;18.30;12.70;;;3.70;89.20;;;;;;5056513;28;20415;-49
2021/05/08 04:27:35;;;;;;;18.30;11.25;;;3.60;89.00;;;;;;5073790;28;20511;-49
2021/05/08 04:30:01;;;;;;;19.25;12.35;;;3.70;89.30;;;;;;5070808;28;20048;-50
2021/05/08 04:32:27;;;;;;;19.05;11.85;;;3.70;89.10;;;;;;5073355;28;20036;-49
2021/05/08 04:34:52;;;;;;;19.10;11.40;;;3.70;89.00;;;;;;5072710;28;20032;-50
2021/05/08 04:37:18;;;;;;;20.35;11.77;;;3.80;88.80;;;;;;5072520;28;20089;-52
2021/05/08 04:39:44;;;;;;;16.58;11.57;;;3.80;88.60;;;;;;5072376;28;20040;-49
2021/05/08 04:42:10;;;;;;;18.58;12.15;;;3.80;88.60;;;;;;5072386;28;20044;-51
2021/05/08 04:44:35;;;;;;;18.73;12.52;;;3.80;88.80;;;;;;5073740;28;20103;-49
2021/05/08 04:47:01;;;;;;;18.00;11.80;;;3.80;88.70;;;;;;5071966;28;20049;-50
2021/05/08 04:49:26;;;;;;;17.85;12.10;;;3.90;88.70;;;;;;5072285;28;20064;-50
2021/05/08 04:51:54;;;;;;;18.70;12.52;;;3.90;88.40;;;;;;5072339;28;20499;-52
2021/05/08 04:54:20;;;;;;;19.02;11.48;;;4.00;88.90;;;;;;5071265;28;20032;-53
2021/05/08 04:56:47;;;;;;;15.57;11.73;;;4.00;88.90;;;;;;5072117;28;20048;-51
2021/05/08 04:59:14;;;;;;;21.98;12.02;;;4.10;88.60;;;;;;5036766;28;20191;-50
2021/05/08 05:01:40;;;;;;;21.73;12.23;;;4.20;88.20;;;;;;5068417;28;20040;-50
2021/05/08 05:04:06;;;;;;;19.45;12.45;;;4.30;87.90;;;;;;5026530;28;20056;-50
2021/05/08 05:06:35;;;;;;;16.92;11.52;;;4.30;87.90;;;;;;5046721;28;20404;-49
2021/05/08 05:09:01;;;;;;;19.45;11.80;;;4.40;88.00;;;;;;5069867;28;20041;-50
2021/05/08 05:11:28;;;;;;;19.45;12.30;;;4.50;87.80;;;;;;5065218;28;20079;-49
2021/05/08 05:13:54;;;;;;;20.52;11.98;;;4.50;87.30;;;;;;5070089;28;20404;-49
2021/05/08 05:16:19;;;;;;;21.05;11.70;;;4.60;86.80;;;;;;5070317;28;20041;-53
2021/05/08 05:18:45;;;;;;;20.35;10.95;;;4.70;86.30;;;;;;5051033;28;20040;-53
2021/05/08 05:21:15;;;;;;;17.15;11.45;;;4.80;86.10;;;;;;5071773;28;20595;-54
2021/05/08 05:23:41;;;;;;;19.58;11.25;;;5.00;85.80;;;;;;5051473;28;20140;-51
2021/05/08 05:26:06;;;;;;;21.17;11.43;;;5.10;84.80;;;;;;5071330;28;20497;-54
2021/05/08 05:28:33;;;;;;;19.55;11.15;;;5.30;84.40;;;;;;5070600;28;20087;-52
2021/05/08 05:30:59;;;;;;;18.40;11.55;;;5.60;82.90;;;;;;5071025;28;20052;-52
2021/05/08 05:33:25;;;;;;;16.15;11.38;;;5.90;81.90;;;;;;5068576;28;20043;-53
2021/05/08 05:35:54;;;;;;;18.17;11.07;;;6.30;80.90;;;;;;5068606;28;20041;-52
2021/05/08 05:38:21;;;;;;;15.43;10.75;;;6.50;80.00;;;;;;5071421;28;20064;-52
2021/05/08 05:40:47;;;;;;;15.02;11.30;;;6.80;79.20;;;;;;5069580;28;20041;-54
2021/05/08 05:43:14;;;;;;;17.67;11.23;;;7.00;78.30;;;;;;5053205;28;20044;-52
2021/05/08 05:45:40;;;;;;;16.52;10.95;;;7.40;76.80;;;;;;5070567;28;20051;-54
2021/05/08 05:48:07;;;;;;;16.17;10.98;;;7.90;75.40;;;;;;5036842;28;20489;-52
2021/05/08 05:50:41;;;;;;;16.27;11.75;;;8.30;74.30;;;;;;5066940;28;20033;-52
2021/05/08 05:53:07;;;;;;;19.27;11.93;;;8.60;73.30;;;;;;5068634;28;20149;-51
2021/05/08 05:55:39;;;;;;;18.00;11.43;;;8.70;72.70;;;;;;5072751;28;20075;-54
2021/05/08 05:58:04;;;;;;;15.68;11.10;;;8.80;72.20;;;;;;5051737;28;20076;-51
2021/05/08 06:00:32;;;;;;;16.65;11.77;;;8.80;72.70;;;;;;5069589;28;20032;-52
2021/05/08 06:02:58;;;;;;;16.02;11.52;;;8.70;73.40;;;;;;5069192;28;20554;-51
2021/05/08 06:05:24;;;;;;;20.60;12.55;;;8.60;73.10;;;;;;5053468;28;20731;-54
2021/05/08 06:07:50;;;;;;;18.90;12.63;;;8.50;73.30;;;;;;5051858;28;20040;-53
2021/05/08 06:10:16;;;;;;;17.70;13.02;;;8.70;73.60;;;;;;5069770;28;20135;-52
2021/05/08 06:12:42;;;;;;;17.25;12.70;;;9.10;72.40;;;;;;5070128;28;20347;-54
2021/05/08 06:15:10;;;;;;;18.00;12.90;;;9.20;71.10;;;;;;5053277;28;20044;-54
2021/05/08 06:17:36;;;;;;;21.50;13.48;;;9.20;71.70;;;;;;5071135;28;20513;-54
2021/05/08 06:20:03;;;;;;;19.70;12.55;;;9.10;71.70;;;;;;5049820;28;20158;-51
2021/05/08 06:22:30;;;;;;;18.83;13.20;;;9.00;73.10;;;;;;5071447;28;20072;-52
2021/05/08 06:24:56;;;;;;;20.88;13.27;;;9.00;73.20;;;;;;5070340;28;20213;-51
2021/05/08 06:27:23;;;;;;;19.58;13.85;;;8.80;72.80;;;;;;5071218;28;20484;-51
2021/05/08 06:29:49;;;;;;;20.98;13.73;;;8.80;72.70;;;;;;5069863;28;20076;-54
2021/05/08 06:32:16;;;;;;;20.30;13.27;;;8.80;74.20;;;;;;5070782;28;20057;-53
2021/05/08 06:34:41;;;;;;;19.88;13.10;;;8.80;74.60;;;;;;5070342;28;20075;-54
2021/05/08 06:37:07;;;;;;;25.38;13.32;;;8.90;71.80;;;;;;5071245;28;20104;-53
2021/05/08 06:39:33;;;;;;;21.13;13.93;;;8.90;72.10;;;;;;5070368;28;20528;-54
2021/05/08 06:41:59;;;;;;;19.48;13.75;;;9.00;72.10;;;;;;5052641;28;20044;-51
2021/05/08 06:44:26;;;;;;;19.70;12.77;;;9.00;72.90;;;;;;5070870;28;20066;-54
2021/05/08 06:46:55;;;;;;;18.25;12.95;;;9.00;72.90;;;;;;5070595;28;20047;-53
2021/05/08 06:49:21;;;;;;;18.00;13.48;;;9.00;72.50;;;;;;5070167;28;20044;-50
2021/05/08 06:51:47;;;;;;;18.50;13.23;;;9.10;71.60;;;;;;5070238;28;20028;-51
2021/05/08 06:54:13;;;;;;;18.25;14.18;;;9.10;71.40;;;;;;5070863;28;20040;-53
2021/05/08 06:56:39;;;;;;;19.77;13.15;;;9.10;72.00;;;;;;5070676;28;20071;-54
2021/05/08 06:59:04;;;;;;;24.10;14.35;;;9.00;71.40;;;;;;5069548;28;20441;-51
2021/05/08 07:01:34;;;;;;;21.85;13.98;;;9.10;71.90;;;;;;5070424;28;20123;-52
2021/05/08 07:03:59;;;;;;;21.02;13.18;;;9.10;72.40;;;;;;5070596;28;20120;-53
2021/05/08 07:06:25;;;;;;;21.95;13.80;;;9.10;71.70;;;;;;5070655;28;20060;-54
2021/05/08 07:08:52;;;;;;;21.50;13.90;;;9.10;72.20;;;;;;5069790;28;20091;-54
2021/05/08 07:11:18;;;;;;;21.52;13.57;;;9.10;72.70;;;;;;5071134;28;20040;-54
2021/05/08 07:13:47;;;;;;;18.52;13.00;;;9.20;71.70;;;;;;5070307;28;20128;-53
2021/05/08 07:16:12;;;;;;;19.50;13.25;;;9.20;71.60;;;;;;5069421;28;20131;-54
2021/05/08 07:18:38;;;;;;;20.35;13.07;;;9.20;70.50;;;;;;5069833;28;20056;-54
2021/05/08 07:21:06;;;;;;;22.70;13.93;;;9.30;70.60;;;;;;5070199;28;20063;-54
2021/05/08 07:23:32;;;;;;;19.15;13.68;;;9.30;72.10;;;;;;5053378;28;20041;-54
2021/05/08 07:25:58;;;;;;;19.73;13.43;;;9.50;70.70;;;;;;5074000;28;20054;-54
2021/05/08 07:28:25;;;;;;;21.85;13.43;;;9.60;69.50;;;;;;5073382;28;20045;-54
2021/05/08 07:30:53;;;;;;;19.42;13.82;;;9.60;70.10;;;;;;5073377;28;20400;-55
2021/05/08 07:33:20;;;;;;;22.50;14.55;;;9.70;69.60;;;;;;5073590;28;20090;-53
2021/05/08 07:35:47;;;;;;;23.65;13.77;;;9.80;69.80;;;;;;5073854;28;20047;-53
2021/05/08 07:38:14;;;;;;;22.65;14.02;;;9.90;69.60;;;;;;5074458;28;20773;-51
2021/05/08 07:40:40;;;;;;;20.60;14.65;;;10.00;68.40;;;;;;5055195;28;20455;-51
2021/05/08 07:43:07;;;;;;;22.60;13.45;;;10.00;69.30;;;;;;5073586;28;20105;-51
2021/05/08 07:45:34;;;;;;;24.90;12.75;;;10.10;68.40;;;;;;5073099;28;20033;-54
2021/05/08 07:48:00;;;;;;;21.83;13.40;;;10.30;67.10;;;;;;5073991;28;20041;-54
2021/05/08 07:50:28;;;;;;;20.65;13.15;;;10.40;66.40;;;;;;5055015;28;20028;-54
2021/05/08 07:52:54;;;;;;;18.77;12.25;;;10.40;66.90;;;;;;5056099;28;20037;-53
2021/05/08 07:55:20;;;;;;;17.48;11.60;;;10.50;65.20;;;;;;5073572;28;20042;-54
2021/05/08 07:57:47;;;;;;;20.80;12.18;;;10.60;65.10;;;;;;5068619;28;20501;-53
2021/05/08 08:00:16;;;;;;;19.23;12.70;;;10.60;63.70;;;;;;5073250;28;20515;-54
2021/05/08 08:03:02;;;;;;;18.00;11.88;;;10.60;64.20;;;;;;5058379;28;20500;-54
2021/05/08 08:05:28;;;;;;;18.17;12.27;;;10.70;64.10;;;;;;5073509;28;20470;-52
2021/05/08 08:07:54;;;;;;;18.77;11.88;;;10.70;65.40;;;;;;5073395;28;20048;-51
2021/05/08 08:10:21;;;;;;;21.40;13.15;;;10.70;63.40;;;;;;5068366;28;20114;-53
2021/05/08 08:12:46;;;;;;;17.45;12.00;;;10.70;64.50;;;;;;5071688;28;20463;-50
2021/05/08 08:15:13;;;;;;;17.50;12.20;;;10.80;64.40;;;;;;5073239;28;20037;-53
2021/05/08 08:17:39;;;;;;;20.95;12.48;;;10.90;63.60;;;;;;5073055;28;20048;-55
2021/05/08 08:20:07;;;;;;;20.42;13.07;;;11.00;63.20;;;;;;5072614;28;20079;-53
2021/05/08 08:22:34;;;;;;;23.00;13.27;;;11.00;63.80;;;;;;5072234;28;20385;-50
2021/05/08 08:25:00;;;;;;;20.92;13.90;;;11.10;63.50;;;;;;5054592;28;20056;-53
2021/05/08 08:27:26;;;;;;;22.65;12.70;;;11.10;62.60;;;;;;5073388;28;20098;-52
2021/05/08 08:29:52;;;;;;;22.63;13.55;;;11.30;61.70;;;;;;5072221;28;20079;-52
2021/05/08 08:32:18;;;;;;;23.90;13.60;;;11.30;60.60;;;;;;5054694;28;20043;-52
2021/05/08 08:34:44;;;;;;;21.42;13.52;;;11.30;60.70;;;;;;5054988;28;20036;-52
2021/05/08 08:37:10;;;;;;;20.00;13.30;;;11.30;60.50;;;;;;5072448;28;20036;-53
2021/05/08 08:39:36;;;;;;;21.98;13.65;;;11.30;60.00;;;;;;5071580;28;20458;-52
2021/05/08 08:42:07;;;;;;;19.25;13.13;;;11.30;60.70;;;;;;5072370;28;20040;-52
2021/05/08 08:44:34;;;;;;;18.42;12.52;;;11.30;60.50;;;;;;5072727;28;20488;-52
2021/05/08 08:46:59;;;;;;;20.83;12.77;;;11.40;59.90;;;;;;5067205;28;20073;-55
2021/05/08 08:49:25;;;;;;;22.13;14.23;;;11.40;59.80;;;;;;5072287;28;20508;-52
2021/05/08 08:51:51;;;;;;;22.95;13.38;;;11.50;59.30;;;;;;5033804;28;20049;-53
2021/05/08 08:54:17;;;;;;;22.35;13.75;;;11.40;61.00;;;;;;5072070;28;20526;-52
2021/05/08 08:56:45;;;;;;;19.63;12.60;;;11.40;61.50;;;;;;5072415;28;20040;-50
2021/05/08 09:01:43;;;;;;;19.20;11.27;;;11.60;59.00;;;;;;5072774;28;20041;-51
2021/05/08 09:04:13;;;;;;;20.23;12.48;;;11.70;58.50;;;;;;5072156;28;20047;-55
2021/05/08 09:06:41;;;;;;;19.42;12.82;;;11.70;58.50;;;;;;5072323;28;20072;-50
2021/05/08 09:09:08;;;;;;;21.23;13.05;;;11.70;59.60;;;;;;5071277;28;20127;-51
2021/05/08 09:11:48;;;;;;;21.85;11.93;;;11.80;58.10;;;;;;5071886;28;20402;-53
2021/05/08 09:14:16;;;;;;;21.88;12.27;;;11.80;57.60;;;;;;5072157;28;20161;-54
2021/05/08 09:17:05;;;;;;;16.48;10.57;;;11.80;57.20;;;;;;5071968;28;20554;-53
2021/05/08 09:19:32;;;;;;;21.25;12.60;;;11.80;57.30;;;;;;5071910;28;20041;-53
2021/05/08 09:22:01;;;;;;;20.75;11.77;;;11.80;57.70;;;;;;5071782;28;20120;-50
2021/05/08 09:24:26;;;;;;;19.25;11.85;;;11.80;58.20;;;;;;5071493;28;20128;-53
2021/05/08 09:26:53;;;;;;;20.25;12.10;;;11.70;59.60;;;;;;5071718;28;20115;-52
2021/05/08 09:29:23;;;;;;;18.98;11.93;;;11.80;60.50;;;;;;5071279;28;20143;-53
2021/05/08 09:31:53;;;;;;;18.85;11.98;;;11.90;58.40;;;;;;5066556;28;20044;-52
2021/05/08 09:34:19;;;;;;;18.55;11.32;;;11.80;59.00;;;;;;5071938;28;20040;-52
2021/05/08 09:36:55;;;;;;;17.30;11.52;;;11.90;58.50;;;;;;5065390;28;20037;-55
2021/05/08 09:39:31;;;;;;;16.98;11.05;;;12.00;58.70;;;;;;5070201;28;20451;-54
2021/05/08 09:41:58;;;;;;;18.40;11.63;;;12.00;59.40;;;;;;5048201;28;20412;-53
2021/05/08 09:44:23;;;;;;;17.90;10.63;;;12.10;57.80;;;;;;5071541;28;20488;-52
2021/05/08 09:46:51;;;;;;;20.95;12.40;;;12.10;58.90;;;;;;5071054;28;20035;-54
2021/05/08 09:49:20;;;;;;;17.40;10.55;;;12.20;59.40;;;;;;5070401;28;20037;-54
2021/05/08 09:51:56;;;;;;;18.52;10.63;;;12.30;60.10;;;;;;5067585;28;20448;-53
2021/05/08 09:54:21;;;;;;;14.13;9.38;;;12.40;58.20;;;;;;5069900;28;20089;-52
2021/05/08 09:56:49;;;;;;;17.67;9.60;;;12.50;57.80;;;;;;5071339;28;20461;-55
2021/05/08 09:59:33;;;;;;;15.63;9.40;;;12.60;58.40;;;;;;5052557;28;20489;-53
2021/05/08 10:02:02;;;;;;;14.82;8.95;;;12.70;57.20;;;;;;5071619;28;20050;-55
2021/05/08 10:04:29;;;;;;;16.65;9.18;;;12.90;56.30;;;;;;5057947;28;20450;-51
2021/05/08 10:07:08;;;;;;;15.77;9.13;;;13.00;54.20;;;;;;5053218;28;20041;-54
2021/05/08 10:09:35;;;;;;;14.65;9.00;;;13.00;55.90;;;;;;5056617;28;20040;-53
2021/05/08 10:12:07;;;;;;;14.77;8.25;;;13.10;54.30;;;;;;5053752;28;20046;-54
2021/05/08 10:14:34;;;;;;;13.77;8.75;;;13.30;56.40;;;;;;5033762;28;20036;-55
2021/05/08 10:17:00;;;;;;;15.20;9.40;;;13.30;54.40;;;;;;5062549;28;20044;-53
2021/05/08 10:19:30;;;;;;;13.20;8.70;;;13.30;55.60;;;;;;5071100;28;20411;-54
2021/05/08 10:22:02;;;;;;;17.20;9.05;;;13.40;55.70;;;;;;5070514;28;20053;-51
2021/05/08 10:24:29;;;;;;;14.05;8.85;;;13.50;54.90;;;;;;5061766;28;20654;-54
2021/05/08 10:26:59;;;;;;;14.55;8.75;;;13.50;54.20;;;;;;5051214;28;20067;-54
2021/05/08 10:29:30;;;;;;;10.68;7.32;;;13.60;53.30;;;;;;5070691;28;20432;-55
2021/05/08 10:32:05;;;;;;;12.82;8.50;;;13.70;53.80;;;;;;5031246;28;20509;-54
2021/05/08 10:34:36;;;;;;;15.20;9.68;;;13.60;54.50;;;;;;5070719;28;20045;-54
2021/05/08 10:37:09;;;;;;;14.90;8.88;;;13.60;54.10;;;;;;5070146;28;20093;-54
2021/05/08 10:40:12;;;;;;;14.63;9.25;;;13.60;54.10;;;;;;5053123;28;20056;-55
2021/05/08 10:42:42;;;;;;;16.08;8.98;;;13.60;56.20;;;;;;5062572;28;20110;-54
2021/05/08 10:45:12;;;;;;;13.05;9.05;;;13.60;55.60;;;;;;5052909;28;20048;-54
2021/05/08 10:47:52;;;;;;;14.93;8.13;;;13.60;56.80;;;;;;5065865;28;20041;-55
2021/05/08 10:50:27;;;;;;;13.75;7.70;;;13.60;56.10;;;;;;5069601;28;20070;-55
2021/05/08 10:53:01;;;;;;;14.02;7.38;;;13.60;54.60;;;;;;5070077;28;20036;-55
2021/05/08 10:55:29;;;;;;;11.60;7.68;;;13.50;55.60;;;;;;5065661;28;20041;-53
2021/05/08 10:58:13;;;;;;;12.00;7.63;;;13.50;56.20;;;;;;5071088;28;20131;-55
2021/05/08 11:00:58;;;;;;;11.02;7.82;;;13.50;57.10;;;;;;5070279;28;20496;-55
2021/05/08 11:03:47;;;;;;;15.50;8.65;;;13.40;58.00;;;;;;5040517;28;20622;-55
2021/05/08 11:06:17;;;;;;;13.25;7.78;;;13.50;56.40;;;;;;5056765;28;20443;-55
2021/05/08 11:08:46;;;;;;;14.88;7.63;;;13.50;55.80;;;;;;5074813;28;20041;-53
2021/05/08 11:11:22;;;;;;;11.80;7.55;;;13.50;56.40;;;;;;5074373;28;20072;-55
2021/05/08 11:13:56;;;;;;;13.52;7.68;;;13.40;57.40;;;;;;5073866;28;20036;-54
2021/05/08 11:16:25;;;;;;;12.45;7.88;;;13.50;57.70;;;;;;5060549;28;20484;-54
2021/05/08 11:18:54;;;;;;;13.38;7.80;;;13.60;55.90;;;;;;5074208;28;20028;-55
2021/05/08 11:21:21;;;;;;;10.25;7.13;;;13.70;55.40;;;;;;5056171;28;20040;-52
2021/05/08 11:23:55;;;;;;;10.52;7.13;;;13.70;54.90;;;;;;5074208;28;20107;-55
2021/05/08 11:26:22;;;;;;;10.25;7.22;;;13.80;54.70;;;;;;5074168;28;20586;-55
2021/05/08 11:29:19;;;;;;;11.82;6.63;;;13.80;56.00;;;;;;5073906;28;20573;-54
2021/05/08 11:31:47;;;;;;;10.80;6.50;;;13.90;55.60;;;;;;5070488;28;20508;-55
2021/05/08 11:34:20;;;;;;;15.73;6.63;;;13.90;55.00;;;;;;5074397;28;20618;-55
2021/05/08 11:37:01;;;;;;;10.95;7.10;;;13.90;55.30;;;;;;5069054;28;20408;-54
2021/05/08 11:39:27;;;;;;;8.63;4.93;;;13.90;55.60;;;;;;5068654;28;20047;-55
2021/05/08 11:41:56;;;;;;;7.10;4.70;;;13.80;55.00;;;;;;5039347;28;20409;-54
2021/05/08 11:44:31;;;;;;;9.73;4.68;;;13.70;55.10;;;;;;5073746;28;20067;-54
2021/05/08 11:47:27;;;;;;;9.15;5.05;;;13.60;56.80;;;;;;5069122;28;20488;-55
2021/05/08 11:50:07;;;;;;;7.90;4.43;;;13.50;55.40;;;;;;5055633;28;20358;-55
2021/05/08 11:52:47;;;;;;;7.63;4.78;;;13.50;54.40;;;;;;5073194;28;20035;-55
2021/05/08 11:55:13;;;;;;;8.68;4.70;;;13.60;51.70;;;;;;5072359;28;20514;-54
2021/05/08 11:57:47;;;;;;;6.70;4.78;;;13.50;53.90;;;;;;5055158;28;20044;-54
2021/05/08 12:00:21;;;;;;;7.47;4.85;;;13.50;55.10;;;;;;5072492;28;20036;-55
2021/05/08 12:02:48;;;;;;;9.32;5.35;;;13.40;55.50;;;;;;5059175;28;20045;-53
2021/05/08 12:05:14;;;;;;;8.82;5.20;;;13.30;57.40;;;;;;5056189;28;20128;-55
2021/05/08 12:07:42;;;;;;;6.47;4.63;;;13.20;57.90;;;;;;5055600;28;20067;-55
2021/05/08 12:10:11;;;;;;;7.82;5.35;;;13.10;60.00;;;;;;5054416;28;20552;-54
2021/05/08 12:12:49;;;;;;;7.00;4.45;;;13.10;59.80;;;;;;5073957;28;20047;-54
2021/05/08 12:15:28;;;;;;;8.10;4.20;;;13.10;58.10;;;;;;5075862;28;20036;-55
2021/05/08 12:17:56;;;;;;;7.88;4.22;;;13.20;58.20;;;;;;5076119;28;20404;-54
2021/05/08 12:20:24;;;;;;;8.55;4.75;;;13.10;60.60;;;;;;5074946;28;20091;-55
2021/05/08 12:22:53;;;;;;;6.97;4.05;;;13.00;60.70;;;;;;5075455;28;20054;-54
2021/05/08 12:25:24;;;;;;;8.55;4.28;;;13.00;59.80;;;;;;5075747;28;20037;-54
2021/05/08 12:28:15;;;;;;;6.75;4.53;;;13.00;59.10;;;;;;5062724;28;20039;-55
2021/05/08 12:30:43;;;;;;;7.10;4.28;;;12.90;60.50;;;;;;5068455;28;20053;-54
2021/05/08 12:33:22;;;;;;;8.25;4.63;;;12.80;62.60;;;;;;5058469;28;20037;-55
2021/05/08 12:35:48;;;;;;;6.43;4.80;;;12.70;62.40;;;;;;5074366;28;20102;-55
2021/05/08 12:38:17;;;;;;;7.72;5.00;;;12.60;64.20;;;;;;5075858;28;20105;-54
2021/05/08 12:40:44;;;;;;;7.45;5.30;;;12.50;65.30;;;;;;5055979;28;20075;-55
2021/05/08 12:43:10;;;;;;;9.10;5.55;;;12.50;66.80;;;;;;5073470;28;20114;-54
2021/05/08 12:45:58;;;;;;;9.82;5.63;;;12.40;67.40;;;;;;5074514;28;20036;-54
2021/05/08 12:48:38;;;;;;;10.40;5.80;;;12.30;68.90;;;;;;5076055;28;20040;-55